createdAt,value
2019-01-29T00:00:48.867Z,14.57
2019-01-29T00:03:17.536Z,12.53
2019-01-29T00:05:45.541Z,13.73
2019-01-29T00:08:13.664Z,20.37
2019-01-29T00:10:41.792Z,17.10
2019-01-29T00:13:09.898Z,13.53
2019-01-29T00:15:37.984Z,16.53
2019-01-29T00:18:06.060Z,14.50
2019-01-29T00:20:34.249Z,15.70
2019-01-29T00:23:02.330Z,21.00
2019-01-29T00:25:30.399Z,13.67
2019-01-29T00:27:58.460Z,16.90
2019-01-29T00:30:26.488Z,17.27
2019-01-29T00:32:54.556Z,18.87
2019-01-29T00:35:22.607Z,17.03
2019-01-29T00:37:52.144Z,16.87
2019-01-29T00:40:20.351Z,19.07
2019-01-29T00:42:48.356Z,12.40
2019-01-29T00:45:16.700Z,16.30
2019-01-29T00:47:44.783Z,17.20
2019-01-29T00:50:13.334Z,15.60
2019-01-29T00:52:42.532Z,17.03
2019-01-29T00:55:12.003Z,15.87
2019-01-29T00:57:40.406Z,21.30
2019-01-29T01:00:28.165Z,15.93
2019-01-29T01:02:56.252Z,17.77
2019-01-29T01:05:24.280Z,15.10
2019-01-29T01:07:52.307Z,14.40
2019-01-29T01:10:21.292Z,16.60
2019-01-29T01:12:49.342Z,20.20
2019-01-29T01:15:17.779Z,17.70
2019-01-29T01:17:45.903Z,15.17
2019-01-29T01:20:16.428Z,17.53
2019-01-29T01:22:50.630Z,13.03
2019-01-29T01:25:15.950Z,17.33
2019-01-29T01:27:44.056Z,14.07
2019-01-29T01:30:17.723Z,18.67
2019-01-29T01:32:45.796Z,15.50
2019-01-29T01:35:14.195Z,20.30
2019-01-29T01:37:43.316Z,15.17
2019-01-29T01:40:19.004Z,15.40
2019-01-29T01:42:47.096Z,18.47
2019-01-29T01:45:15.263Z,12.63
2019-01-29T01:47:43.352Z,15.23
2019-01-29T01:50:13.653Z,14.80
2019-01-29T01:52:41.697Z,12.03
2019-01-29T01:55:14.500Z,16.20
2019-01-29T01:57:42.551Z,12.77
2019-01-29T02:00:14.938Z,15.37
2019-01-29T02:02:42.951Z,12.20
2019-01-29T02:05:11.043Z,19.13
2019-01-29T02:07:39.158Z,17.10
2019-01-29T02:10:13.306Z,14.07
2019-01-29T02:12:41.490Z,12.07
2019-01-29T02:15:10.233Z,11.23
2019-01-29T02:17:38.398Z,10.83
2019-01-29T02:20:08.326Z,14.63
2019-01-29T02:22:36.562Z,14.80
2019-01-29T02:25:06.028Z,15.33
2019-01-29T02:27:34.094Z,10.70
2019-01-29T02:30:02.351Z,11.43
2019-01-29T02:32:30.527Z,17.50
2019-01-29T02:34:58.537Z,16.13
2019-01-29T02:37:26.642Z,15.80
2019-01-29T02:39:55.895Z,14.63
2019-01-29T02:42:24.104Z,12.17
2019-01-29T02:44:52.130Z,19.20
2019-01-29T02:47:20.260Z,9.33
2019-01-29T02:49:48.264Z,10.60
2019-01-29T02:52:16.327Z,9.70
2019-01-29T02:54:44.381Z,12.80
2019-01-29T02:57:12.480Z,10.67
2019-01-29T02:59:40.658Z,13.43
2019-01-29T03:02:08.729Z,12.83
2019-01-29T03:04:36.756Z,12.47
2019-01-29T03:07:04.868Z,10.83
2019-01-29T03:09:32.901Z,16.80
2019-01-29T03:12:01.066Z,17.03
2019-01-29T03:14:29.228Z,11.73
2019-01-29T03:16:57.285Z,12.23
2019-01-29T03:19:25.368Z,15.77
2019-01-29T03:21:53.433Z,15.87
2019-01-29T03:24:21.595Z,11.73
2019-01-29T03:26:49.636Z,15.53
2019-01-29T03:29:17.670Z,9.93
2019-01-29T03:31:45.713Z,10.20
2019-01-29T03:34:13.861Z,15.07
2019-01-29T03:36:42.313Z,9.37
2019-01-29T03:39:10.312Z,15.43
2019-01-29T03:41:38.363Z,10.00
2019-01-29T03:44:06.584Z,10.87
2019-01-29T03:46:34.704Z,15.83
2019-01-29T03:49:02.700Z,9.83
2019-01-29T03:51:30.791Z,12.33
2019-01-29T03:53:58.904Z,11.43
2019-01-29T03:56:27.063Z,13.47
2019-01-29T03:58:55.401Z,12.30
2019-01-29T04:01:23.577Z,12.83
2019-01-29T04:03:51.623Z,16.00
2019-01-29T04:06:19.706Z,13.03
2019-01-29T04:08:47.830Z,9.17
2019-01-29T04:11:15.851Z,13.97
2019-01-29T04:13:43.940Z,14.80
2019-01-29T04:16:12.208Z,9.03
2019-01-29T04:18:40.787Z,18.97
2019-01-29T04:21:08.920Z,15.63
2019-01-29T04:23:36.996Z,15.33
2019-01-29T04:26:05.060Z,15.27
2019-01-29T04:28:33.164Z,13.93
2019-01-29T04:31:01.409Z,15.77
2019-01-29T04:33:29.443Z,12.87
2019-01-29T04:35:57.514Z,11.57
2019-01-29T04:38:25.652Z,12.17
2019-01-29T04:40:54.068Z,12.70
2019-01-29T04:43:22.119Z,12.47
2019-01-29T04:45:50.208Z,11.37
2019-01-29T04:48:18.325Z,10.83
2019-01-29T04:50:46.532Z,13.40
2019-01-29T04:53:14.689Z,12.67
2019-01-29T04:55:42.865Z,16.27
2019-01-29T04:58:11.093Z,15.27
2019-01-29T05:00:39.305Z,18.60
2019-01-29T05:03:07.624Z,9.27
2019-01-29T05:05:35.658Z,12.97
2019-01-29T05:08:03.908Z,9.07
2019-01-29T05:10:31.942Z,11.37
2019-01-29T05:13:00.128Z,9.30
2019-01-29T05:15:28.341Z,15.60
2019-01-29T05:17:56.455Z,9.57
2019-01-29T05:20:24.597Z,11.80
2019-01-29T05:22:52.649Z,15.23
2019-01-29T05:25:21.205Z,11.00
2019-01-29T05:27:52.598Z,14.60
2019-01-29T05:30:23.579Z,12.03
2019-01-29T05:32:52.173Z,18.40
2019-01-29T05:35:20.774Z,11.93
2019-01-29T05:37:48.967Z,13.13
2019-01-29T05:40:19.341Z,11.83
2019-01-29T05:42:48.469Z,12.23
2019-01-29T05:45:18.688Z,15.63
2019-01-29T05:47:48.980Z,10.23
2019-01-29T05:50:19.454Z,9.07
2019-01-29T05:52:47.693Z,12.17
2019-01-29T05:55:16.682Z,9.60
2019-01-29T05:57:45.054Z,13.57
2019-01-29T06:00:20.763Z,14.67
2019-01-29T06:02:48.940Z,17.87
2019-01-29T06:05:17.829Z,16.97
2019-01-29T06:07:45.986Z,14.53
2019-01-29T06:10:14.251Z,19.73
2019-01-29T06:12:42.432Z,10.27
2019-01-29T06:15:14.474Z,15.30
2019-01-29T06:17:42.549Z,14.50
2019-01-29T06:20:18.241Z,16.70
2019-01-29T06:22:46.197Z,16.57
2019-01-29T06:25:14.316Z,10.07
2019-01-29T06:27:42.345Z,12.60
2019-01-29T06:30:13.276Z,14.13
2019-01-29T06:32:41.337Z,13.03
2019-01-29T06:35:12.968Z,13.47
2019-01-29T06:37:40.989Z,9.30
2019-01-29T06:40:12.018Z,11.60
2019-01-29T06:42:40.131Z,9.73
2019-01-29T06:45:12.452Z,12.13
2019-01-29T06:47:40.512Z,14.23
2019-01-29T06:50:12.524Z,13.60
2019-01-29T06:52:40.692Z,16.77
2019-01-29T06:55:13.147Z,16.43
2019-01-29T06:57:41.489Z,17.90
2019-01-29T07:00:14.686Z,18.30
2019-01-29T07:02:43.253Z,22.27
2019-01-29T07:05:11.565Z,15.23
2019-01-29T07:07:40.702Z,17.90
2019-01-29T07:10:11.409Z,24.67
2019-01-29T07:12:39.458Z,14.50
2019-01-29T07:15:13.154Z,18.27
2019-01-29T07:17:45.584Z,17.20
2019-01-29T07:20:14.005Z,20.60
2019-01-29T07:22:42.145Z,14.83
2019-01-29T07:25:11.264Z,19.30
2019-01-29T07:27:39.403Z,17.33
2019-01-29T07:30:11.342Z,14.43
2019-01-29T07:32:39.499Z,19.47
2019-01-29T07:35:08.300Z,17.93
2019-01-29T07:37:36.520Z,14.93
2019-01-29T07:40:05.995Z,21.03
2019-01-29T07:42:34.227Z,17.57
2019-01-29T07:45:03.441Z,17.27
2019-01-29T07:47:31.733Z,19.57
2019-01-29T07:49:59.765Z,19.03
2019-01-29T07:52:28.253Z,19.27
2019-01-29T07:54:56.469Z,15.67
2019-01-29T07:57:24.516Z,20.07
2019-01-29T07:59:52.675Z,15.40
2019-01-29T08:02:20.646Z,17.63
2019-01-29T08:04:49.081Z,16.60
2019-01-29T08:07:17.131Z,16.90
2019-01-29T08:09:45.879Z,16.37
2019-01-29T08:12:13.940Z,18.73
2019-01-29T08:14:42.004Z,13.27
2019-01-29T08:17:10.163Z,17.33
2019-01-29T08:19:38.247Z,10.97
2019-01-29T08:22:06.584Z,13.67
2019-01-29T08:24:34.636Z,15.17
2019-01-29T08:27:02.716Z,13.30
2019-01-29T08:29:30.821Z,15.67
2019-01-29T08:31:58.926Z,17.80
2019-01-29T08:34:26.938Z,14.53
2019-01-29T08:36:55.035Z,14.90
2019-01-29T08:39:23.154Z,11.20
2019-01-29T08:41:51.155Z,13.20
2019-01-29T08:44:19.335Z,12.23
2019-01-29T08:46:47.421Z,20.20
2019-01-29T08:49:15.524Z,16.67
2019-01-29T08:51:43.656Z,15.80
2019-01-29T08:54:11.827Z,13.60
2019-01-29T08:56:39.838Z,18.53
2019-01-29T08:59:07.952Z,17.40
2019-01-29T09:01:36.122Z,16.03
2019-01-29T09:04:04.301Z,16.23
2019-01-29T09:06:32.317Z,22.53
2019-01-29T09:09:00.363Z,17.87
2019-01-29T09:11:28.505Z,21.07
2019-01-29T09:13:56.618Z,16.67
2019-01-29T09:16:24.765Z,20.00
2019-01-29T09:18:53.121Z,16.60
2019-01-29T09:21:21.282Z,17.53
2019-01-29T09:23:49.475Z,18.03
2019-01-29T09:26:17.663Z,17.27
2019-01-29T09:28:46.292Z,21.77
2019-01-29T09:31:14.304Z,22.00
2019-01-29T09:33:42.398Z,16.00
2019-01-29T09:36:10.507Z,18.53
2019-01-29T09:38:38.548Z,11.57
2019-01-29T09:41:06.568Z,14.67
2019-01-29T09:43:34.901Z,13.17
2019-01-29T09:46:04.301Z,11.10
2019-01-29T09:48:33.596Z,14.73
2019-01-29T09:51:01.817Z,16.40
2019-01-29T09:53:29.986Z,15.93
2019-01-29T09:55:58.063Z,15.00
2019-01-29T09:58:26.131Z,15.37
2019-01-29T10:00:54.332Z,12.87
2019-01-29T10:03:22.594Z,13.63
2019-01-29T10:05:51.817Z,16.90
2019-01-29T10:08:19.873Z,14.20
2019-01-29T10:10:47.891Z,16.30
2019-01-29T10:13:17.607Z,13.13
2019-01-29T10:15:45.948Z,12.27
2019-01-29T10:18:16.371Z,12.37
2019-01-29T10:20:44.518Z,13.97
2019-01-29T10:23:12.531Z,18.67
2019-01-29T10:25:40.563Z,14.63
2019-01-29T10:28:08.622Z,12.33
2019-01-29T10:30:36.913Z,20.80
2019-01-29T10:33:04.927Z,12.93
2019-01-29T10:35:32.996Z,15.90
2019-01-29T10:38:01.061Z,12.37
2019-01-29T10:40:29.156Z,11.60
2019-01-29T10:42:57.635Z,11.83
2019-01-29T10:45:28.229Z,10.97
2019-01-29T10:47:56.366Z,12.00
2019-01-29T10:50:25.974Z,11.83
2019-01-29T10:52:54.653Z,10.20
2019-01-29T10:55:23.080Z,13.67
2019-01-29T10:57:51.451Z,14.90
2019-01-29T11:00:23.679Z,10.23
2019-01-29T11:02:52.108Z,12.53
2019-01-29T11:05:21.615Z,17.90
2019-01-29T11:07:49.758Z,11.83
2019-01-29T11:10:18.471Z,13.30
2019-01-29T11:12:46.478Z,10.63
2019-01-29T11:15:21.783Z,11.67
2019-01-29T11:17:49.810Z,12.43
2019-01-29T11:20:18.210Z,16.50
2019-01-29T11:22:46.982Z,12.70
2019-01-29T11:25:20.898Z,15.90
2019-01-29T11:27:49.294Z,17.03
2019-01-29T11:30:24.144Z,17.37
2019-01-29T11:32:52.795Z,9.10
2019-01-29T11:35:20.972Z,12.13
2019-01-29T11:37:49.206Z,17.87
2019-01-29T11:40:21.591Z,12.47
2019-01-29T11:42:49.756Z,20.37
2019-01-29T11:45:25.905Z,13.20
2019-01-29T11:47:54.015Z,14.07
2019-01-29T11:50:22.165Z,15.03
2019-01-29T11:52:50.376Z,17.73
2019-01-29T11:55:18.452Z,16.57
2019-01-29T11:57:46.917Z,12.27
2019-01-29T12:00:23.665Z,15.90
2019-01-29T12:02:52.045Z,14.53
2019-01-29T12:05:20.105Z,14.83
2019-01-29T12:07:48.399Z,14.33
2019-01-29T12:10:16.822Z,20.57
2019-01-29T12:12:44.984Z,13.43
2019-01-29T12:15:15.319Z,15.70
2019-01-29T12:17:43.523Z,16.67
2019-01-29T12:20:13.284Z,13.23
2019-01-29T12:22:41.350Z,15.30
2019-01-29T12:25:10.723Z,12.63
2019-01-29T12:27:38.738Z,10.07
2019-01-29T12:30:14.577Z,15.80
2019-01-29T12:32:43.763Z,16.37
2019-01-29T12:35:12.895Z,15.83
2019-01-29T12:37:41.032Z,13.37
2019-01-29T12:40:09.908Z,19.30
2019-01-29T12:42:38.314Z,17.20
2019-01-29T12:45:08.729Z,20.97
2019-01-29T12:47:36.887Z,20.57
2019-01-29T12:50:09.003Z,16.27
2019-01-29T12:52:43.392Z,22.23
2019-01-29T12:55:11.399Z,20.33
2019-01-29T12:57:39.647Z,24.63
2019-01-29T13:00:11.434Z,23.50
2019-01-29T13:02:39.594Z,20.90
2019-01-29T13:05:09.671Z,22.27
2019-01-29T13:07:37.826Z,20.77
2019-01-29T13:10:14.751Z,19.77
2019-01-29T13:12:42.756Z,20.60
2019-01-29T13:15:13.515Z,28.60
2019-01-29T13:17:41.683Z,22.67
2019-01-29T13:20:10.466Z,24.00
2019-01-29T13:22:38.553Z,22.77
2019-01-29T13:25:08.784Z,20.57
2019-01-29T13:27:36.918Z,21.73
2019-01-29T13:30:11.179Z,20.07
2019-01-29T13:32:39.221Z,20.53
2019-01-29T13:35:08.129Z,19.20
2019-01-29T13:37:36.211Z,23.77
2019-01-29T13:40:07.412Z,20.50
2019-01-29T13:42:35.489Z,24.20
2019-01-29T13:45:05.600Z,23.83
2019-01-29T13:47:33.687Z,21.73
2019-01-29T13:50:01.846Z,23.00
2019-01-29T13:52:30.040Z,20.03
2019-01-29T13:54:58.296Z,22.77
2019-01-29T13:57:26.325Z,24.70
2019-01-29T13:59:54.442Z,24.37
2019-01-29T14:02:22.575Z,21.53
2019-01-29T14:04:50.570Z,26.67
2019-01-29T14:07:18.691Z,22.40
2019-01-29T14:09:46.734Z,17.30
2019-01-29T14:12:14.792Z,27.60
2019-01-29T14:14:42.825Z,25.73
2019-01-29T14:17:11.017Z,35.00
2019-01-29T14:19:39.121Z,27.57
2019-01-29T14:22:08.336Z,22.53
2019-01-29T14:24:36.406Z,23.87
2019-01-29T14:27:04.537Z,21.83
2019-01-29T14:29:33.735Z,23.20
2019-01-29T14:32:01.910Z,22.87
2019-01-29T14:34:29.976Z,23.07
2019-01-29T14:36:58.171Z,25.07
2019-01-29T14:40:11.372Z,22.00
2019-01-29T14:42:39.525Z,19.60
2019-01-29T14:45:21.213Z,20.93
2019-01-29T14:47:49.398Z,19.53
2019-01-29T14:50:18.442Z,21.40
2019-01-29T14:52:47.687Z,24.87
2019-01-29T14:55:16.329Z,19.90
2019-01-29T14:57:44.389Z,21.23
2019-01-29T15:00:19.925Z,20.13
2019-01-29T15:02:47.964Z,23.67
2019-01-29T15:05:15.994Z,18.10
2019-01-29T15:07:44.407Z,18.37
2019-01-29T15:10:15.080Z,17.87
2019-01-29T15:12:43.329Z,17.90
2019-01-29T15:15:13.684Z,23.93
2019-01-29T15:17:46.521Z,16.73
2019-01-29T15:20:14.663Z,19.93
2019-01-29T15:22:42.901Z,20.13
2019-01-29T15:25:11.666Z,20.10
2019-01-29T15:27:40.151Z,16.67
2019-01-29T15:30:17.475Z,16.80
2019-01-29T15:32:45.813Z,19.17
2019-01-29T15:35:14.114Z,19.07
2019-01-29T15:37:42.169Z,17.93
2019-01-29T15:40:13.427Z,16.27
2019-01-29T15:42:41.640Z,19.13
2019-01-29T15:45:14.873Z,19.60
2019-01-29T15:47:44.451Z,22.30
2019-01-29T15:50:17.705Z,18.60
2019-01-29T15:52:48.725Z,19.43
2019-01-29T15:55:16.343Z,18.67
2019-01-29T15:57:44.889Z,20.20
2019-01-29T16:00:25.130Z,24.30
2019-01-29T16:02:57.850Z,20.97
2019-01-29T16:05:27.504Z,22.07
2019-01-29T16:07:55.901Z,23.40
2019-01-29T16:10:28.057Z,25.73
2019-01-29T16:12:56.146Z,21.03
2019-01-29T16:15:24.645Z,29.70
2019-01-29T16:17:52.729Z,27.23
2019-01-29T16:20:22.277Z,24.67
2019-01-29T16:22:50.529Z,26.77
2019-01-29T16:25:20.430Z,27.00
2019-01-29T16:27:48.734Z,26.37
2019-01-29T16:30:22.907Z,33.17
2019-01-29T16:32:51.090Z,25.53
2019-01-29T16:35:24.777Z,30.47
2019-01-29T16:37:53.883Z,27.13
2019-01-29T16:40:23.790Z,32.67
2019-01-29T16:42:53.643Z,29.83
2019-01-29T16:45:27.141Z,35.60
2019-01-29T16:47:56.954Z,34.00
2019-01-29T16:50:26.129Z,29.33
2019-01-29T16:52:55.928Z,30.67
2019-01-29T16:55:24.998Z,29.20
2019-01-29T16:57:53.373Z,32.23
2019-01-29T17:00:27.755Z,30.30
2019-01-29T17:02:56.609Z,27.37
2019-01-29T17:05:25.145Z,28.53
2019-01-29T17:07:53.759Z,25.43
2019-01-29T17:10:22.251Z,29.73
2019-01-29T17:12:50.327Z,31.00
2019-01-29T17:15:24.762Z,28.23
2019-01-29T17:17:53.859Z,28.17
2019-01-29T17:20:26.075Z,31.57
2019-01-29T17:22:54.471Z,36.53
2019-01-29T17:25:22.781Z,27.83
2019-01-29T17:27:51.164Z,26.63
2019-01-29T17:30:33.244Z,27.87
2019-01-29T17:33:01.330Z,35.07
2019-01-29T17:35:29.807Z,31.67
2019-01-29T17:37:57.851Z,33.30
2019-01-29T17:40:26.161Z,30.60
2019-01-29T17:42:56.513Z,32.13
2019-01-29T17:45:29.178Z,29.13
2019-01-29T17:47:57.659Z,30.93
2019-01-29T17:50:30.196Z,33.10
2019-01-29T17:52:58.240Z,30.67
2019-01-29T17:55:28.597Z,33.93
2019-01-29T17:57:56.668Z,27.43
2019-01-29T18:00:30.441Z,27.73
2019-01-29T18:02:58.466Z,28.67
2019-01-29T18:05:26.799Z,33.50
2019-01-29T18:07:54.969Z,28.43
2019-01-29T18:10:23.164Z,34.27
2019-01-29T18:12:51.503Z,31.73
2019-01-29T18:15:23.355Z,28.73
2019-01-29T18:17:51.524Z,31.33
2019-01-29T18:20:20.109Z,29.80
2019-01-29T18:22:48.307Z,35.07
2019-01-29T18:25:17.489Z,32.03
2019-01-29T18:27:45.696Z,29.13
2019-01-29T18:30:18.525Z,31.30
2019-01-29T18:32:46.615Z,35.00
2019-01-29T18:35:16.598Z,29.97
2019-01-29T18:37:44.634Z,32.37
2019-01-29T18:40:19.790Z,30.47
2019-01-29T18:42:47.912Z,37.13
2019-01-29T18:45:16.460Z,35.70
2019-01-29T18:47:44.515Z,33.17
2019-01-29T18:50:15.181Z,33.03
2019-01-29T18:52:43.295Z,37.87
2019-01-29T18:55:12.431Z,40.07
2019-01-29T18:57:40.637Z,34.63
2019-01-29T19:00:14.361Z,33.63
2019-01-29T19:02:42.417Z,33.60
2019-01-29T19:05:11.479Z,39.87
2019-01-29T19:07:39.677Z,37.33
2019-01-29T19:10:11.445Z,35.93
2019-01-29T19:12:39.503Z,38.07
2019-01-29T19:15:12.581Z,33.80
2019-01-29T19:17:41.834Z,35.87
2019-01-29T19:20:11.530Z,37.10
2019-01-29T19:22:39.619Z,35.13
2019-01-29T19:25:10.623Z,38.03
2019-01-29T19:27:38.689Z,36.83
2019-01-29T19:30:15.488Z,45.07
2019-01-29T19:32:43.554Z,35.97
2019-01-29T19:35:11.973Z,45.27
2019-01-29T19:37:40.191Z,42.37
2019-01-29T19:40:09.871Z,49.57
2019-01-29T19:42:37.995Z,43.00
2019-01-29T19:45:11.463Z,40.00
2019-01-29T19:47:39.974Z,43.47
2019-01-29T19:50:14.064Z,48.20
2019-01-29T19:52:42.159Z,43.97
2019-01-29T19:55:10.263Z,40.03
2019-01-29T19:57:38.395Z,38.47
2019-01-29T20:00:15.066Z,45.90
2019-01-29T20:02:43.306Z,45.93
2019-01-29T20:05:11.956Z,43.67
2019-01-29T20:07:40.599Z,42.37
2019-01-29T20:10:11.042Z,41.60
2019-01-29T20:12:39.088Z,40.70
2019-01-29T20:15:10.471Z,41.10
2019-01-29T20:17:39.106Z,45.67
2019-01-29T20:20:11.812Z,51.73
2019-01-29T20:22:39.943Z,46.87
2019-01-29T20:25:08.702Z,45.07
2019-01-29T20:27:36.762Z,49.70
2019-01-29T20:30:09.522Z,44.93
2019-01-29T20:32:37.611Z,44.70
2019-01-29T20:35:05.807Z,46.97
2019-01-29T20:37:33.916Z,46.00
2019-01-29T20:40:01.990Z,51.20
2019-01-29T20:42:30.158Z,44.17
2019-01-29T20:44:58.252Z,48.53
2019-01-29T20:47:26.334Z,48.47
2019-01-29T20:49:54.467Z,51.67
2019-01-29T20:52:22.620Z,47.33
2019-01-29T20:54:50.794Z,51.40
2019-01-29T20:57:19.667Z,49.00
2019-01-29T20:59:47.918Z,46.80
2019-01-29T21:02:16.014Z,50.90
2019-01-29T21:04:44.033Z,53.40
2019-01-29T21:07:12.159Z,53.47
2019-01-29T21:09:40.275Z,51.60
2019-01-29T21:12:08.362Z,50.17
2019-01-29T21:14:36.455Z,55.90
2019-01-29T21:17:04.689Z,60.00
2019-01-29T21:19:32.856Z,54.47
2019-01-29T21:22:01.102Z,48.60
2019-01-29T21:24:29.178Z,55.40
2019-01-29T21:26:57.287Z,58.27
2019-01-29T21:29:25.365Z,56.30
2019-01-29T21:31:54.189Z,52.10
2019-01-29T21:34:22.250Z,50.77
2019-01-29T21:36:50.409Z,50.87
2019-01-29T21:39:18.667Z,50.80
2019-01-29T21:41:46.824Z,46.27
2019-01-29T21:44:15.247Z,61.53
2019-01-29T21:46:43.363Z,58.47
2019-01-29T21:49:13.736Z,53.33
2019-01-29T21:51:41.401Z,58.63
2019-01-29T21:54:09.393Z,50.97
2019-01-29T21:56:37.446Z,54.33
2019-01-29T21:59:13.172Z,56.30
2019-01-29T22:01:36.436Z,50.27
2019-01-29T22:04:04.664Z,54.07
2019-01-29T22:06:32.904Z,55.67
2019-01-29T22:09:01.130Z,57.13
2019-01-29T22:11:29.211Z,55.87
2019-01-29T22:13:57.279Z,49.00
2019-01-29T22:16:25.657Z,53.50
2019-01-29T22:18:53.835Z,53.07
2019-01-29T22:21:22.051Z,51.50
2019-01-29T22:23:50.170Z,50.50
2019-01-29T22:26:18.213Z,53.23
2019-01-29T22:28:46.286Z,53.17
2019-01-29T22:31:14.348Z,50.13
2019-01-29T22:33:42.554Z,48.73
2019-01-29T22:36:10.626Z,46.23
2019-01-29T22:38:38.714Z,47.53
2019-01-29T22:41:06.798Z,46.27
2019-01-29T22:43:34.822Z,48.67
2019-01-29T22:46:03.159Z,43.73
2019-01-29T22:48:31.220Z,41.50
2019-01-29T22:50:59.253Z,49.87
2019-01-29T22:53:28.443Z,44.50
2019-01-29T22:55:56.444Z,41.87
2019-01-29T22:58:24.683Z,41.53
2019-01-29T23:01:31.546Z,48.23
2019-01-29T23:04:10.914Z,46.67
2019-01-29T23:06:54.086Z,48.13
2019-01-29T23:09:22.340Z,48.67
2019-01-29T23:11:50.472Z,58.70
2019-01-29T23:14:18.737Z,46.87
2019-01-29T23:16:46.783Z,47.20
2019-01-29T23:19:14.996Z,44.43
2019-01-29T23:21:43.069Z,46.03
2019-01-29T23:24:11.153Z,46.87
2019-01-29T23:26:39.318Z,47.53
2019-01-29T23:29:07.482Z,48.70
2019-01-29T23:31:36.482Z,47.87
2019-01-29T23:34:05.561Z,46.57
2019-01-29T23:36:33.594Z,51.27
2019-01-29T23:39:01.663Z,48.73
2019-01-29T23:41:30.892Z,47.30
2019-01-29T23:43:58.979Z,50.17
2019-01-29T23:46:27.047Z,49.17
2019-01-29T23:48:55.140Z,50.20
2019-01-29T23:51:23.275Z,54.47
2019-01-29T23:53:51.491Z,47.50
2019-01-29T23:56:19.563Z,46.23
2019-01-29T23:58:47.593Z,47.53
